createdAt,value
2022-10-23T00:01:45.048Z,13.54
2022-10-23T00:04:17.728Z,13.52
2022-10-23T00:06:46.154Z,13.52
2022-10-23T00:09:17.959Z,13.52
2022-10-23T00:11:50.276Z,13.49
2022-10-23T00:14:21.288Z,13.47
2022-10-23T00:16:48.870Z,13.43
2022-10-23T00:19:16.980Z,13.40
2022-10-23T00:21:44.675Z,13.41
2022-10-23T00:24:12.466Z,13.42
2022-10-23T00:26:40.209Z,13.45
2022-10-23T00:29:09.285Z,13.47
2022-10-23T00:31:38.308Z,13.50
2022-10-23T00:34:07.784Z,13.51
2022-10-23T00:36:35.859Z,13.55
2022-10-23T00:39:05.140Z,13.57
2022-10-23T00:41:34.188Z,13.61
2022-10-23T00:44:12.765Z,13.64
2022-10-23T00:46:40.450Z,13.65
2022-10-23T00:49:09.362Z,13.65
2022-10-23T00:51:42.381Z,13.65
2022-10-23T00:54:23.385Z,13.63
2022-10-23T00:56:46.132Z,13.60
2022-10-23T00:59:17.423Z,13.56
2022-10-23T01:01:50.404Z,13.52
2022-10-23T01:04:20.576Z,13.46
2022-10-23T01:07:17.530Z,13.42
2022-10-23T01:10:04.554Z,13.39
2022-10-23T01:13:06.483Z,13.33
2022-10-23T01:15:55.483Z,13.27
2022-10-23T01:18:37.278Z,13.25
2022-10-23T01:21:37.615Z,13.21
2022-10-23T01:24:45.947Z,13.20
2022-10-23T01:27:24.192Z,13.20
2022-10-23T01:30:08.602Z,13.20
2022-10-23T01:33:04.250Z,13.23
2022-10-23T01:35:47.464Z,13.26
2022-10-23T01:38:20.880Z,13.26
2022-10-23T01:41:01.209Z,13.30
2022-10-23T01:43:34.321Z,13.35
2022-10-23T01:46:05.746Z,13.41
2022-10-23T01:48:37.174Z,13.44
2022-10-23T01:51:08.791Z,13.47
2022-10-23T01:53:40.942Z,13.47
2022-10-23T01:56:13.936Z,13.44
2022-10-23T01:58:46.781Z,13.43
2022-10-23T02:01:18.158Z,13.42
2022-10-23T02:03:49.989Z,13.41
2022-10-23T02:06:18.348Z,13.33
2022-10-23T02:08:46.743Z,13.27
2022-10-23T02:11:17.960Z,13.21
2022-10-23T02:14:10.754Z,13.09
2022-10-23T02:16:54.111Z,12.94
2022-10-23T02:19:31.091Z,12.81
2022-10-23T02:22:14.634Z,12.76
2022-10-23T02:24:59.806Z,12.72
2022-10-23T02:27:45.091Z,12.67
2022-10-23T02:30:16.850Z,12.68
2022-10-23T02:32:53.386Z,12.69
2022-10-23T02:35:23.747Z,12.70
2022-10-23T02:37:57.596Z,12.68
2022-10-23T02:40:41.129Z,12.65
2022-10-23T02:43:23.377Z,12.60
2022-10-23T02:46:02.707Z,12.57
2022-10-23T02:48:35.649Z,12.53
2022-10-23T02:51:25.431Z,12.53
2022-10-23T02:54:29.071Z,12.50
2022-10-23T02:57:37.140Z,12.45
2022-10-23T03:00:11.078Z,12.37
2022-10-23T03:02:56.624Z,12.39
2022-10-23T03:05:30.132Z,12.39
2022-10-23T03:07:57.815Z,12.30
2022-10-23T03:10:25.552Z,12.23
2022-10-23T03:12:53.527Z,12.20
2022-10-23T03:15:21.458Z,12.16
2022-10-23T03:17:49.885Z,12.10
2022-10-23T03:20:18.294Z,12.06
2022-10-23T03:22:46.593Z,12.02
2022-10-23T03:25:14.382Z,12.00
2022-10-23T03:27:42.125Z,11.96
2022-10-23T03:30:11.601Z,11.98
2022-10-23T03:32:40.548Z,11.94
2022-10-23T03:35:08.721Z,11.90
2022-10-23T03:37:36.201Z,11.87
2022-10-23T03:40:05.155Z,11.83
2022-10-23T03:42:34.800Z,11.79
2022-10-23T03:45:02.431Z,11.77
2022-10-23T03:47:30.244Z,11.71
2022-10-23T03:49:58.416Z,11.75
2022-10-23T03:52:25.939Z,11.73
2022-10-23T03:54:53.519Z,11.68
2022-10-23T03:57:20.952Z,11.73
2022-10-23T03:59:48.380Z,11.77
2022-10-23T04:02:17.310Z,11.73
2022-10-23T04:04:44.863Z,11.68
2022-10-23T04:07:12.465Z,11.59
2022-10-23T04:09:40.116Z,11.55
2022-10-23T04:12:09.189Z,11.51
2022-10-23T04:14:37.081Z,11.50
2022-10-23T04:17:05.013Z,11.48
2022-10-23T04:19:32.639Z,11.41
2022-10-23T04:22:00.120Z,11.43
2022-10-23T04:24:27.807Z,11.39
2022-10-23T04:26:55.607Z,11.35
2022-10-23T04:29:25.391Z,11.30
2022-10-23T04:31:53.012Z,11.28
2022-10-23T04:34:20.690Z,11.24
2022-10-23T04:36:48.452Z,11.21
2022-10-23T04:39:16.129Z,11.23
2022-10-23T04:41:43.663Z,11.20
2022-10-23T04:44:11.416Z,11.17
2022-10-23T04:46:39.276Z,11.19
2022-10-23T04:49:06.917Z,11.19
2022-10-23T04:51:53.031Z,11.19
2022-10-23T04:54:25.126Z,11.20
2022-10-23T04:56:57.008Z,11.21
2022-10-23T04:59:24.935Z,11.20
2022-10-23T05:01:52.740Z,11.17
2022-10-23T05:04:20.587Z,11.19
2022-10-23T05:07:06.817Z,11.24
2022-10-23T05:09:42.447Z,11.30
2022-10-23T05:12:11.798Z,11.33
2022-10-23T05:14:39.614Z,11.38
2022-10-23T05:17:17.484Z,11.45
2022-10-23T05:19:51.574Z,11.51
2022-10-23T05:22:21.295Z,11.52
2022-10-23T05:24:50.948Z,11.53
2022-10-23T05:27:20.356Z,11.55
2022-10-23T05:29:47.848Z,11.54
2022-10-23T05:32:17.620Z,11.57
2022-10-23T05:34:45.726Z,11.62
2022-10-23T05:37:16.321Z,11.64
2022-10-23T05:39:45.279Z,11.67
2022-10-23T05:42:14.830Z,11.70
2022-10-23T05:44:42.916Z,11.74
2022-10-23T05:47:12.257Z,11.79
2022-10-23T05:49:58.498Z,11.82
2022-10-23T05:52:36.512Z,11.87
2022-10-23T05:55:09.471Z,11.85
2022-10-23T05:57:45.693Z,11.85
2022-10-23T06:00:15.629Z,11.84
2022-10-23T06:02:43.072Z,11.85
2022-10-23T06:05:15.692Z,11.84
2022-10-23T06:07:48.163Z,11.85
2022-10-23T06:10:15.751Z,11.81
2022-10-23T06:12:45.152Z,11.79
2022-10-23T06:15:14.678Z,11.85
2022-10-23T06:17:44.446Z,11.88
2022-10-23T06:20:12.497Z,11.97
2022-10-23T06:22:40.522Z,12.05
2022-10-23T06:25:13.334Z,12.13
2022-10-23T06:27:41.331Z,12.19
2022-10-23T06:30:10.517Z,12.22
2022-10-23T06:32:38.061Z,12.27
2022-10-23T06:35:08.731Z,12.27
2022-10-23T06:37:36.408Z,12.18
2022-10-23T06:40:09.634Z,12.17
2022-10-23T06:42:57.563Z,12.25
2022-10-23T06:45:25.115Z,12.34
2022-10-23T06:47:54.437Z,12.44
2022-10-23T06:50:33.900Z,12.49
2022-10-23T06:53:04.954Z,12.50
2022-10-23T06:55:33.621Z,12.49
2022-10-23T06:58:02.123Z,12.52
2022-10-23T07:00:29.901Z,12.44
2022-10-23T07:02:57.350Z,12.32
2022-10-23T07:05:25.036Z,12.21
2022-10-23T07:07:52.803Z,12.16
2022-10-23T07:10:22.771Z,12.05
2022-10-23T07:12:56.706Z,12.04
2022-10-23T07:15:39.414Z,11.99
2022-10-23T07:18:10.683Z,11.97
2022-10-23T07:20:42.087Z,12.02
2022-10-23T07:23:11.763Z,12.07
2022-10-23T07:25:39.693Z,12.10
2022-10-23T07:28:08.215Z,12.15
2022-10-23T07:30:36.561Z,12.18
2022-10-23T07:33:04.428Z,12.27
2022-10-23T07:35:46.884Z,12.29
2022-10-23T07:38:17.160Z,12.33
2022-10-23T07:40:46.683Z,12.35
2022-10-23T07:43:17.907Z,12.38
2022-10-23T07:45:48.291Z,12.37
2022-10-23T07:48:21.327Z,12.40
2022-10-23T07:50:51.491Z,12.38
2022-10-23T07:53:24.904Z,12.34
2022-10-23T07:56:00.697Z,12.25
2022-10-23T07:58:30.260Z,12.18
2022-10-23T08:01:23.368Z,12.06
2022-10-23T08:03:50.948Z,12.00
2022-10-23T08:06:18.886Z,11.97
2022-10-23T08:08:47.148Z,11.90
2022-10-23T08:11:17.787Z,11.89
2022-10-23T08:13:47.580Z,11.88
2022-10-23T08:16:15.286Z,11.85
2022-10-23T08:18:54.825Z,11.86
2022-10-23T08:21:22.740Z,11.83
2022-10-23T08:23:59.790Z,11.86
2022-10-23T08:26:28.918Z,11.86
2022-10-23T08:28:59.076Z,11.87
2022-10-23T08:31:27.541Z,11.83
2022-10-23T08:34:05.698Z,11.86
2022-10-23T08:36:33.443Z,11.84
2022-10-23T08:39:01.239Z,11.85
2022-10-23T08:41:37.046Z,11.88
2022-10-23T08:44:38.350Z,11.93
2022-10-23T08:47:17.114Z,11.98
2022-10-23T08:50:00.255Z,11.99
2022-10-23T08:52:35.855Z,12.01
2022-10-23T08:55:23.750Z,12.05
2022-10-23T08:58:10.120Z,12.10
2022-10-23T09:00:37.841Z,12.11
2022-10-23T09:03:05.636Z,12.13
2022-10-23T09:05:39.025Z,12.16
2022-10-23T09:08:47.844Z,12.19
2022-10-23T09:11:26.675Z,12.18
2022-10-23T09:14:14.638Z,12.24
2022-10-23T09:17:04.412Z,12.29
2022-10-23T09:19:32.349Z,12.26
2022-10-23T09:22:00.756Z,12.27
2022-10-23T09:24:30.267Z,12.25
2022-10-23T09:26:58.163Z,12.24
2022-10-23T09:29:31.353Z,12.24
2022-10-23T09:32:03.554Z,12.22
2022-10-23T09:34:34.338Z,12.23
2022-10-23T09:37:22.325Z,12.22
2022-10-23T09:40:19.328Z,12.28
2022-10-23T09:43:01.448Z,12.36
2022-10-23T09:45:33.755Z,12.45
2022-10-23T09:48:14.900Z,12.47
2022-10-23T09:50:48.927Z,12.47
2022-10-23T09:53:33.252Z,12.51
2022-10-23T09:56:10.897Z,12.58
2022-10-23T09:58:43.496Z,12.64
2022-10-23T10:01:30.144Z,12.65
2022-10-23T10:03:59.910Z,12.65
2022-10-23T10:06:31.117Z,12.67
2022-10-23T10:09:03.797Z,12.68
2022-10-23T10:11:40.671Z,12.71
2022-10-23T10:14:45.043Z,12.76
2022-10-23T10:17:44.482Z,12.86
2022-10-23T10:20:48.541Z,12.88
2022-10-23T10:23:47.807Z,12.88
2022-10-23T10:26:40.947Z,12.94
2022-10-23T10:29:27.343Z,12.95
2022-10-23T10:32:24.262Z,12.95
2022-10-23T10:34:57.580Z,13.01
2022-10-23T10:37:49.546Z,13.08
2022-10-23T10:40:34.875Z,13.15
2022-10-23T10:43:32.227Z,13.09
2022-10-23T10:46:22.890Z,13.06
2022-10-23T10:48:58.440Z,13.07
2022-10-23T10:51:59.616Z,13.11
2022-10-23T10:54:45.258Z,13.14
2022-10-23T10:57:45.585Z,13.18
2022-10-23T11:00:23.007Z,13.18
2022-10-23T11:03:15.041Z,13.13
2022-10-23T11:05:50.093Z,13.08
2022-10-23T11:08:27.813Z,13.10
2022-10-23T11:11:00.047Z,13.11
2022-10-23T11:13:40.098Z,13.12
2022-10-23T11:16:23.071Z,13.16
2022-10-23T11:19:27.578Z,13.22
2022-10-23T11:22:09.632Z,13.31
2022-10-23T11:24:58.319Z,13.32
2022-10-23T11:27:46.995Z,13.24
2022-10-23T11:30:56.890Z,13.21
2022-10-23T11:33:53.969Z,13.14
2022-10-23T11:36:55.028Z,13.11
2022-10-23T11:39:29.178Z,13.09
2022-10-23T11:42:10.080Z,13.11
2022-10-23T11:44:50.321Z,13.12
2022-10-23T11:47:40.431Z,13.13
2022-10-23T11:50:12.691Z,13.11
2022-10-23T11:53:16.124Z,13.09
2022-10-23T11:55:38.017Z,13.08
2022-10-23T11:58:13.971Z,13.07
2022-10-23T12:00:52.469Z,13.05
2022-10-23T12:03:30.065Z,13.03
2022-10-23T12:06:02.463Z,13.04
2022-10-23T12:08:34.671Z,13.08
2022-10-23T12:11:02.413Z,13.13
2022-10-23T12:13:38.342Z,13.16
2022-10-23T12:16:07.325Z,13.17
2022-10-23T12:18:52.419Z,13.17
2022-10-23T12:21:26.527Z,13.21
2022-10-23T12:24:36.347Z,13.23
2022-10-23T12:27:18.512Z,13.22
2022-10-23T12:30:11.784Z,13.21
2022-10-23T12:33:03.461Z,13.22
2022-10-23T12:35:55.002Z,13.21
2022-10-23T12:38:26.722Z,13.19
2022-10-23T12:41:04.008Z,13.19
2022-10-23T12:43:36.269Z,13.21
2022-10-23T12:46:34.494Z,13.23
2022-10-23T12:49:06.515Z,13.28
2022-10-23T12:51:36.178Z,13.37
2022-10-23T12:54:04.740Z,13.46
2022-10-23T12:56:36.410Z,13.55
2022-10-23T12:59:09.037Z,13.61
2022-10-23T13:01:39.412Z,13.67
2022-10-23T13:04:29.436Z,13.74
2022-10-23T13:07:00.764Z,13.81
2022-10-23T13:09:35.814Z,13.91
2022-10-23T13:12:31.505Z,14.00
2022-10-23T13:15:10.924Z,14.07
2022-10-23T13:17:42.913Z,14.11
2022-10-23T13:20:25.979Z,14.13
2022-10-23T13:23:19.560Z,14.16
2022-10-23T13:26:00.403Z,14.19
2022-10-23T13:28:32.654Z,14.21
2022-10-23T13:31:18.086Z,14.20
2022-10-23T13:34:01.630Z,14.18
2022-10-23T13:36:34.524Z,14.19
2022-10-23T13:39:10.436Z,14.19
2022-10-23T13:41:44.761Z,14.19
2022-10-23T13:44:15.781Z,14.18
2022-10-23T13:46:43.906Z,14.18
2022-10-23T13:49:11.846Z,14.16
2022-10-23T13:51:50.557Z,14.15
2022-10-23T13:54:25.453Z,14.13
2022-10-23T13:56:54.780Z,14.17
2022-10-23T13:59:23.100Z,14.19
2022-10-23T14:01:51.838Z,14.23
2022-10-23T14:04:21.131Z,14.27
2022-10-23T14:06:48.851Z,14.31
2022-10-23T14:09:18.171Z,14.36
2022-10-23T14:11:45.510Z,14.40
2022-10-23T14:14:13.018Z,14.45
2022-10-23T14:16:40.683Z,14.49
2022-10-23T14:19:08.680Z,14.52
2022-10-23T14:21:36.428Z,14.56
2022-10-23T14:24:04.037Z,14.59
2022-10-23T14:26:32.309Z,14.63
2022-10-23T14:29:02.925Z,14.66
2022-10-23T14:31:29.525Z,14.75
2022-10-23T14:34:00.141Z,14.88
2022-10-23T14:36:38.382Z,14.99
2022-10-23T14:39:00.059Z,15.08
2022-10-23T14:41:27.779Z,15.12
2022-10-23T14:43:55.168Z,15.11
2022-10-23T14:46:24.655Z,15.11
2022-10-23T14:48:57.440Z,15.10
2022-10-23T14:51:27.080Z,15.08
2022-10-23T14:54:01.691Z,15.05
2022-10-23T14:56:32.923Z,15.00
2022-10-23T14:59:04.109Z,14.95
2022-10-23T15:01:35.784Z,14.89
2022-10-23T15:04:03.857Z,14.83
2022-10-23T15:06:33.980Z,14.75
2022-10-23T15:09:02.711Z,14.69
2022-10-23T15:11:31.154Z,14.63
2022-10-23T15:13:59.906Z,14.55
2022-10-23T15:16:28.439Z,14.46
2022-10-23T15:18:56.290Z,14.37
2022-10-23T15:21:23.966Z,14.32
2022-10-23T15:23:52.525Z,14.28
2022-10-23T15:26:22.736Z,14.25
2022-10-23T15:28:56.306Z,14.22
2022-10-23T15:31:40.262Z,14.18
2022-10-23T15:34:18.162Z,14.13
2022-10-23T15:36:46.735Z,14.08
2022-10-23T15:39:18.697Z,14.01
2022-10-23T15:41:47.133Z,13.95
2022-10-23T15:44:19.046Z,13.87
2022-10-23T15:46:48.044Z,13.79
2022-10-23T15:49:17.785Z,13.66
2022-10-23T15:51:45.894Z,13.55
2022-10-23T15:54:18.321Z,13.43
2022-10-23T15:56:49.072Z,13.31
2022-10-23T15:59:18.195Z,13.20
2022-10-23T16:01:45.908Z,13.09
2022-10-23T16:04:15.590Z,12.99
2022-10-23T16:06:44.928Z,12.88
2022-10-23T16:09:13.058Z,12.81
2022-10-23T16:11:42.417Z,12.74
2022-10-23T16:14:13.673Z,12.68
2022-10-23T16:16:41.719Z,12.63
2022-10-23T16:19:10.671Z,12.59
2022-10-23T16:21:38.583Z,12.55
2022-10-23T16:24:08.064Z,12.47
2022-10-23T16:26:36.624Z,12.42
2022-10-23T16:29:07.328Z,12.39
2022-10-23T16:31:35.384Z,12.37
2022-10-23T16:34:04.910Z,12.35
2022-10-23T16:36:33.982Z,12.34
2022-10-23T16:39:08.348Z,12.30
2022-10-23T16:41:54.150Z,12.25
2022-10-23T16:44:23.564Z,12.24
2022-10-23T16:46:56.205Z,12.23
2022-10-23T16:49:23.611Z,12.21
2022-10-23T16:51:50.737Z,12.16
2022-10-23T16:54:18.553Z,12.09
2022-10-23T16:56:46.843Z,12.01
2022-10-23T16:59:14.495Z,11.96
2022-10-23T17:01:42.033Z,11.87
2022-10-23T17:04:10.060Z,11.82
2022-10-23T17:06:37.590Z,11.75
2022-10-23T17:09:05.811Z,11.70
2022-10-23T17:11:38.380Z,11.66
2022-10-23T17:14:13.874Z,11.60
2022-10-23T17:16:51.103Z,11.52
2022-10-23T17:21:55.490Z,11.32
2022-10-23T17:24:23.997Z,11.23
2022-10-23T17:26:51.957Z,11.17
2022-10-23T17:29:20.572Z,11.10
2022-10-23T17:31:51.092Z,11.03
2022-10-23T17:34:22.260Z,10.96
2022-10-23T17:36:53.281Z,10.87
2022-10-23T17:39:25.378Z,10.81
2022-10-23T17:41:53.496Z,10.74
2022-10-23T17:44:21.705Z,10.71
2022-10-23T17:46:54.817Z,10.71
2022-10-23T17:49:24.051Z,10.68
2022-10-23T17:51:57.268Z,10.67
2022-10-23T17:54:27.067Z,10.63
2022-10-23T17:56:55.789Z,10.59
2022-10-23T17:59:23.938Z,10.57
2022-10-23T18:01:51.547Z,10.57
2022-10-23T18:04:20.954Z,10.57
2022-10-23T18:06:52.269Z,10.58
2022-10-23T18:09:21.440Z,10.55
2022-10-23T18:11:49.497Z,10.51
2022-10-23T18:14:19.976Z,10.50
2022-10-23T18:16:48.779Z,10.47
2022-10-23T18:19:18.267Z,10.44
2022-10-23T18:21:47.030Z,10.39
2022-10-23T18:24:15.553Z,10.35
2022-10-23T18:26:43.618Z,10.29
2022-10-23T18:29:12.679Z,10.22
2022-10-23T18:31:41.484Z,10.18
2022-10-23T18:34:20.537Z,10.12
2022-10-23T18:36:50.494Z,10.08
2022-10-23T18:39:22.789Z,10.05
2022-10-23T18:41:55.101Z,10.02
2022-10-23T18:44:26.854Z,9.98
2022-10-23T18:46:56.552Z,9.95
2022-10-23T18:49:24.300Z,9.92
2022-10-23T18:51:52.246Z,9.89
2022-10-23T18:54:21.277Z,9.86
2022-10-23T18:56:49.697Z,9.85
2022-10-23T18:59:20.050Z,9.80
2022-10-23T19:01:48.362Z,9.79
2022-10-23T19:04:18.067Z,9.79
2022-10-23T19:06:47.254Z,9.80
2022-10-23T19:09:15.748Z,9.83
2022-10-23T19:11:45.210Z,9.83
2022-10-23T19:14:12.884Z,9.88
2022-10-23T19:17:09.899Z,9.97
2022-10-23T19:19:51.630Z,10.07
2022-10-23T19:22:19.153Z,10.18
2022-10-23T19:24:55.848Z,10.23
2022-10-23T19:27:25.732Z,10.18
2022-10-23T19:29:55.140Z,10.12
2022-10-23T19:32:22.499Z,10.04
2022-10-23T19:34:49.914Z,9.97
2022-10-23T19:37:17.216Z,9.92
2022-10-23T19:39:45.035Z,9.87
2022-10-23T19:42:12.440Z,9.85
2022-10-23T19:44:40.088Z,9.80
2022-10-23T19:47:07.447Z,9.77
2022-10-23T19:49:35.024Z,9.73
2022-10-23T19:52:02.754Z,9.74
2022-10-23T19:54:30.437Z,9.71
2022-10-23T19:56:58.163Z,9.66
2022-10-23T19:59:25.976Z,9.61
2022-10-23T20:01:53.753Z,9.55
2022-10-23T20:04:21.457Z,9.48
2022-10-23T20:06:49.217Z,9.42
2022-10-23T20:09:16.862Z,9.36
2022-10-23T20:11:44.744Z,9.37
2022-10-23T20:14:13.022Z,9.37
2022-10-23T20:16:44.362Z,9.39
2022-10-23T20:21:46.871Z,9.35
2022-10-23T20:24:17.726Z,9.36
2022-10-23T20:26:50.255Z,9.33
2022-10-23T20:29:18.561Z,9.33
2022-10-23T20:31:46.282Z,9.40
2022-10-23T20:34:13.783Z,9.43
2022-10-23T20:36:46.669Z,9.42
2022-10-23T20:39:18.471Z,9.43
2022-10-23T20:41:47.238Z,9.45
2022-10-23T20:46:44.885Z,9.45
2022-10-23T20:49:13.678Z,9.41
2022-10-23T20:51:42.416Z,9.33
2022-10-23T20:54:10.751Z,9.28
2022-10-23T20:56:39.391Z,9.22
2022-10-23T20:59:15.867Z,9.12
2022-10-23T21:01:50.700Z,9.02
2022-10-23T21:04:22.499Z,8.96
2022-10-23T21:07:08.944Z,8.90
2022-10-23T21:09:22.630Z,8.88
2022-10-23T21:11:50.790Z,8.85
2022-10-23T21:14:18.273Z,8.82
2022-10-23T21:16:46.338Z,8.80
2022-10-23T21:19:15.509Z,8.80
2022-10-23T21:21:44.145Z,8.80
2022-10-23T21:24:15.016Z,8.80
2022-10-23T21:26:43.500Z,8.82
2022-10-23T21:29:20.522Z,8.83
2022-10-23T21:31:41.792Z,8.82
2022-10-23T21:36:48.561Z,8.88
2022-10-23T21:39:06.457Z,8.93
2022-10-23T21:41:34.718Z,8.96
2022-10-23T21:44:05.455Z,8.97
2022-10-23T21:46:35.407Z,8.96
2022-10-23T21:49:03.021Z,8.98
2022-10-23T21:51:37.902Z,8.96
2022-10-23T21:54:09.675Z,8.82
2022-10-23T21:56:44.849Z,8.65
2022-10-23T21:59:16.703Z,8.55
2022-10-23T22:01:46.239Z,8.44
2022-10-23T22:04:18.128Z,8.35
2022-10-23T22:06:48.126Z,8.26
2022-10-23T22:09:18.976Z,8.24
2022-10-23T22:11:49.658Z,8.21
2022-10-23T22:14:17.451Z,8.19
2022-10-23T22:16:45.463Z,8.16
2022-10-23T22:19:16.680Z,8.14
2022-10-23T22:21:44.422Z,8.09
2022-10-23T22:24:12.067Z,8.04
2022-10-23T22:26:47.236Z,7.96
2022-10-23T22:29:19.092Z,7.90
2022-10-23T22:31:49.923Z,7.83
2022-10-23T22:34:48.270Z,7.75
2022-10-23T22:36:56.785Z,7.70
2022-10-23T22:39:24.246Z,7.65
2022-10-23T22:41:51.930Z,7.62
2022-10-23T22:44:19.611Z,7.60
2022-10-23T22:46:47.487Z,7.62
2022-10-23T22:49:15.179Z,7.65
2022-10-23T22:51:42.614Z,7.66
2022-10-23T22:54:10.524Z,7.70
2022-10-23T22:56:38.129Z,7.73
2022-10-23T22:59:05.614Z,7.78
2022-10-23T23:01:38.442Z,7.81
2022-10-23T23:04:19.662Z,7.85
2022-10-23T23:06:35.752Z,7.88
2022-10-23T23:09:04.230Z,7.87
2022-10-23T23:11:37.087Z,7.90
2022-10-23T23:14:02.610Z,7.93
2022-10-23T23:16:31.974Z,7.96
2022-10-23T23:19:02.669Z,7.98
2022-10-23T23:21:30.986Z,7.94
2022-10-23T23:23:58.735Z,7.90
2022-10-23T23:26:26.573Z,7.87
2022-10-23T23:28:55.015Z,7.84
2022-10-23T23:31:26.117Z,7.84
2022-10-23T23:33:54.523Z,7.82
2022-10-23T23:36:27.822Z,7.82
2022-10-23T23:38:57.191Z,7.78
2022-10-23T23:41:26.091Z,7.75
2022-10-23T23:43:56.873Z,7.69
2022-10-23T23:46:25.489Z,7.66
2022-10-23T23:48:53.051Z,7.64
2022-10-23T23:51:24.375Z,7.59
2022-10-23T23:53:52.772Z,7.52
2022-10-23T23:56:21.041Z,7.45
2022-10-23T23:58:48.553Z,7.38
